createdAt,value
2017-05-20T00:00:28.111Z,1007.51
2017-05-20T00:01:08.604Z,1007.49
2017-05-20T00:01:49.098Z,1007.51
2017-05-20T00:02:29.573Z,1007.5
2017-05-20T00:03:10.078Z,1007.51
2017-05-20T00:03:50.561Z,1007.48
2017-05-20T00:04:31.022Z,1007.48
2017-05-20T00:06:48.838Z,1007.48
2017-05-20T00:07:29.325Z,1007.47
2017-05-20T00:08:09.802Z,1007.44
2017-05-20T00:10:27.567Z,1007.46
2017-05-20T00:12:55.473Z,1007.4
2017-05-20T00:13:35.913Z,1007.45
2017-05-20T00:14:16.361Z,1007.44
2017-05-20T00:14:56.849Z,1007.47
2017-05-20T00:15:37.439Z,1007.46
2017-05-20T00:16:17.924Z,1007.48
2017-05-20T00:16:58.398Z,1007.49
2017-05-20T00:17:38.892Z,1007.47
2017-05-20T00:18:19.375Z,1007.51
2017-05-20T00:18:59.846Z,1007.46
2017-05-20T00:19:40.322Z,1007.47
2017-05-20T00:20:20.823Z,1007.47
2017-05-20T00:21:01.303Z,1007.52
2017-05-20T00:21:41.780Z,1007.51
2017-05-20T00:22:22.230Z,1007.48
2017-05-20T00:23:02.657Z,1007.5
2017-05-20T00:23:43.135Z,1007.56
2017-05-20T00:24:23.618Z,1007.53
2017-05-20T00:25:04.084Z,1007.57
2017-05-20T00:25:44.582Z,1007.59
2017-05-20T00:26:25.081Z,1007.55
2017-05-20T00:27:05.551Z,1007.53
2017-05-20T00:27:46.045Z,1007.52
2017-05-20T00:28:26.517Z,1007.55
2017-05-20T00:29:07.015Z,1007.54
2017-05-20T00:29:47.494Z,1007.51
2017-05-20T00:30:27.968Z,1007.53
2017-05-20T00:31:08.440Z,1007.52
2017-05-20T00:31:48.940Z,1007.5
2017-05-20T00:32:29.421Z,1007.46
2017-05-20T00:33:09.908Z,1007.51
2017-05-20T00:33:50.367Z,1007.49
2017-05-20T00:34:30.853Z,1007.53
2017-05-20T00:35:11.289Z,1007.56
2017-05-20T00:35:51.755Z,1007.55
2017-05-20T00:36:32.252Z,1007.54
2017-05-20T00:37:12.734Z,1007.54
2017-05-20T00:37:53.208Z,1007.55
2017-05-20T00:38:33.653Z,1007.52
2017-05-20T00:39:14.118Z,1007.52
2017-05-20T00:39:54.600Z,1007.51
2017-05-20T00:40:35.100Z,1007.48
2017-05-20T00:41:15.584Z,1007.52
2017-05-20T00:41:56.081Z,1007.49
2017-05-20T00:42:36.573Z,1007.48
2017-05-20T00:43:17.050Z,1007.47
2017-05-20T00:43:57.507Z,1007.5
2017-05-20T00:44:37.947Z,1007.5
2017-05-20T00:45:18.391Z,1007.48
2017-05-20T00:45:58.877Z,1007.5
2017-05-20T00:46:39.357Z,1007.49
2017-05-20T00:47:19.842Z,1007.45
2017-05-20T00:48:00.303Z,1007.48
2017-05-20T00:48:40.765Z,1007.49
2017-05-20T00:49:21.218Z,1007.49
2017-05-20T00:51:49.110Z,1007.48
2017-05-20T00:52:29.592Z,1007.46
2017-05-20T00:53:10.079Z,1007.46
2017-05-20T00:53:50.543Z,1007.5
2017-05-20T00:54:31.020Z,1007.48
2017-05-20T00:55:11.478Z,1007.51
2017-05-20T00:55:51.971Z,1007.5
2017-05-20T00:56:32.466Z,1007.49
2017-05-20T00:57:12.935Z,1007.51
2017-05-20T00:57:53.411Z,1007.48
2017-05-20T00:58:33.903Z,1007.49
2017-05-20T01:00:51.670Z,1007.53
2017-05-20T01:01:32.138Z,1007.51
2017-05-20T01:02:12.618Z,1007.47
2017-05-20T01:02:53.093Z,1007.47
2017-05-20T01:03:33.565Z,1007.45
2017-05-20T01:04:14.066Z,1007.47
2017-05-20T01:04:54.552Z,1007.46
2017-05-20T01:05:35.055Z,1007.49
2017-05-20T01:07:32.706Z,1007.49
2017-05-20T01:08:13.174Z,1007.49
2017-05-20T01:08:53.651Z,1007.48
2017-05-20T01:09:34.150Z,1007.46
2017-05-20T01:10:14.657Z,1007.47
2017-05-20T01:10:55.155Z,1007.47
2017-05-20T01:11:35.648Z,1007.49
2017-05-20T01:12:16.133Z,1007.48
2017-05-20T01:12:56.624Z,1007.48
2017-05-20T01:13:37.113Z,1007.43
2017-05-20T01:14:17.604Z,1007.47
2017-05-20T01:14:58.092Z,1007.44
2017-05-20T01:15:38.564Z,1007.44
2017-05-20T01:16:19.043Z,1007.43
2017-05-20T01:16:59.515Z,1007.46
2017-05-20T01:17:39.996Z,1007.43
2017-05-20T01:18:20.474Z,1007.45
2017-05-20T01:19:00.963Z,1007.46
2017-05-20T01:19:41.448Z,1007.43
2017-05-20T01:20:21.935Z,1007.44
2017-05-20T01:22:49.856Z,1007.41
2017-05-20T01:23:30.297Z,1007.38
2017-05-20T01:24:10.781Z,1007.38
2017-05-20T01:24:51.239Z,1007.41
2017-05-20T01:25:31.696Z,1007.41
2017-05-20T01:26:12.153Z,1007.43
2017-05-20T01:26:52.617Z,1007.41
2017-05-20T01:28:50.213Z,1007.41
2017-05-20T01:29:30.701Z,1007.42
2017-05-20T01:30:11.163Z,1007.46
2017-05-20T01:30:51.637Z,1007.45
2017-05-20T01:31:32.100Z,1007.44
2017-05-20T01:32:12.582Z,1007.47
2017-05-20T01:32:53.060Z,1007.45
2017-05-20T01:33:33.526Z,1007.47
2017-05-20T01:35:26.088Z,1007.47
2017-05-20T01:36:06.541Z,1007.47
2017-05-20T01:36:47.046Z,1007.51
2017-05-20T01:37:27.504Z,1007.53
2017-05-20T01:38:07.970Z,1007.55
2017-05-20T01:38:48.444Z,1007.56
2017-05-20T01:39:28.944Z,1007.6
2017-05-20T01:40:09.427Z,1007.6
2017-05-20T01:40:49.907Z,1007.61
2017-05-20T01:41:30.387Z,1007.55
2017-05-20T01:42:10.885Z,1007.61
2017-05-20T01:42:51.349Z,1007.59
2017-05-20T01:43:31.837Z,1007.59
2017-05-20T01:44:12.298Z,1007.6
2017-05-20T01:44:52.766Z,1007.63
2017-05-20T01:45:33.259Z,1007.64
2017-05-20T01:46:13.765Z,1007.62
2017-05-20T01:46:54.203Z,1007.64
2017-05-20T01:47:34.666Z,1007.63
2017-05-20T01:48:15.121Z,1007.64
2017-05-20T01:48:55.548Z,1007.65
2017-05-20T01:51:23.486Z,1007.69
2017-05-20T01:52:03.960Z,1007.66
2017-05-20T01:52:44.424Z,1007.65
2017-05-20T01:53:24.924Z,1007.66
2017-05-20T01:54:05.487Z,1007.65
2017-05-20T01:54:45.898Z,1007.66
2017-05-20T01:55:26.388Z,1007.71
2017-05-20T01:56:06.912Z,1007.7
2017-05-20T01:56:47.379Z,1007.72
2017-05-20T01:57:27.814Z,1007.71
2017-05-20T01:58:08.269Z,1007.71
2017-05-20T01:58:48.751Z,1007.72
2017-05-20T01:59:29.244Z,1007.7
2017-05-20T02:00:09.699Z,1007.7
2017-05-20T02:00:50.157Z,1007.7
2017-05-20T02:01:30.587Z,1007.7
2017-05-20T02:03:48.375Z,1007.7
2017-05-20T02:04:28.856Z,1007.71
2017-05-20T02:05:09.342Z,1007.71
2017-05-20T02:05:49.811Z,1007.73
2017-05-20T02:06:30.285Z,1007.71
2017-05-20T02:07:10.781Z,1007.72
2017-05-20T02:07:51.270Z,1007.71
2017-05-20T02:08:31.743Z,1007.71
2017-05-20T02:09:12.221Z,1007.72
2017-05-20T02:09:52.721Z,1007.71
2017-05-20T02:10:33.213Z,1007.74
2017-05-20T02:11:13.691Z,1007.74
2017-05-20T02:11:54.178Z,1007.73
2017-05-20T02:12:34.663Z,1007.74
2017-05-20T02:13:15.149Z,1007.73
2017-05-20T02:13:55.628Z,1007.73
2017-05-20T02:14:36.147Z,1007.7
2017-05-20T02:15:16.616Z,1007.72
2017-05-20T02:15:57.099Z,1007.72
2017-05-20T02:16:37.581Z,1007.72
2017-05-20T02:17:18.066Z,1007.67
2017-05-20T02:17:58.552Z,1007.7
2017-05-20T02:18:39.035Z,1007.69
2017-05-20T02:19:19.527Z,1007.69
2017-05-20T02:19:59.998Z,1007.69
2017-05-20T02:20:40.495Z,1007.7
2017-05-20T02:21:20.944Z,1007.66
2017-05-20T02:22:01.431Z,1007.69
2017-05-20T02:24:14.168Z,1007.67
2017-05-20T02:24:54.591Z,1007.73
2017-05-20T02:27:22.513Z,1007.71
2017-05-20T02:28:02.980Z,1007.73
2017-05-20T02:30:00.618Z,1007.69
2017-05-20T02:30:41.031Z,1007.67
2017-05-20T02:31:21.503Z,1007.7
2017-05-20T02:32:01.964Z,1007.7
2017-05-20T02:32:42.481Z,1007.72
2017-05-20T02:33:22.963Z,1007.72
2017-05-20T02:34:03.476Z,1007.69
2017-05-20T02:34:43.969Z,1007.74
2017-05-20T02:35:24.441Z,1007.73
2017-05-20T02:36:04.878Z,1007.71
2017-05-20T02:36:45.353Z,1007.71
2017-05-20T02:37:25.809Z,1007.72
2017-05-20T02:38:06.293Z,1007.7
2017-05-20T02:40:03.880Z,1007.7
2017-05-20T02:40:44.351Z,1007.69
2017-05-20T02:41:24.845Z,1007.71
2017-05-20T02:42:05.322Z,1007.71
2017-05-20T02:42:45.800Z,1007.71
2017-05-20T02:43:26.270Z,1007.67
2017-05-20T02:44:06.706Z,1007.68
2017-05-20T02:44:47.182Z,1007.72
2017-05-20T02:45:27.672Z,1007.72
2017-05-20T02:46:08.160Z,1007.7
2017-05-20T02:46:48.616Z,1007.7
2017-05-20T02:47:29.103Z,1007.7
2017-05-20T02:48:09.592Z,1007.68
2017-05-20T02:48:50.048Z,1007.69
2017-05-20T02:49:30.509Z,1007.71
2017-05-20T02:50:10.980Z,1007.7
2017-05-20T02:50:51.471Z,1007.71
2017-05-20T02:51:31.939Z,1007.74
2017-05-20T02:52:12.416Z,1007.74
2017-05-20T02:52:52.905Z,1007.68
2017-05-20T02:55:05.625Z,1007.71
2017-05-20T02:55:46.061Z,1007.74
2017-05-20T02:56:26.560Z,1007.72
2017-05-20T02:57:07.046Z,1007.71
2017-05-20T02:57:47.526Z,1007.72
2017-05-20T02:58:28.002Z,1007.73
2017-05-20T02:59:08.496Z,1007.73
2017-05-20T02:59:48.994Z,1007.73
2017-05-20T03:00:29.478Z,1007.77
2017-05-20T03:01:09.977Z,1007.73
2017-05-20T03:01:50.467Z,1007.72
2017-05-20T03:02:30.958Z,1007.74
2017-05-20T03:03:11.446Z,1007.76
2017-05-20T03:03:51.920Z,1007.75
2017-05-20T03:04:32.368Z,1007.73
2017-05-20T03:05:12.865Z,1007.73
2017-05-20T03:05:53.346Z,1007.74
2017-05-20T03:06:33.838Z,1007.7
2017-05-20T03:07:14.329Z,1007.72
2017-05-20T03:07:54.810Z,1007.71
2017-05-20T03:08:35.283Z,1007.74
2017-05-20T03:10:47.984Z,1007.69
2017-05-20T03:11:28.451Z,1007.7
2017-05-20T03:12:08.936Z,1007.7
2017-05-20T03:12:49.408Z,1007.74
2017-05-20T03:13:29.901Z,1007.69
2017-05-20T03:14:10.384Z,1007.73
2017-05-20T03:14:50.881Z,1007.74
2017-05-20T03:15:31.373Z,1007.73
2017-05-20T03:16:11.856Z,1007.72
2017-05-20T03:16:52.307Z,1007.71
2017-05-20T03:17:32.797Z,1007.74
2017-05-20T03:18:13.285Z,1007.72
2017-05-20T03:18:53.761Z,1007.76
2017-05-20T03:19:34.248Z,1007.75
2017-05-20T03:20:14.726Z,1007.74
2017-05-20T03:20:55.211Z,1007.8
2017-05-20T03:21:35.674Z,1007.76
2017-05-20T03:22:16.149Z,1007.77
2017-05-20T03:22:56.639Z,1007.8
2017-05-20T03:23:37.122Z,1007.78
2017-05-20T03:24:17.576Z,1007.8
2017-05-20T03:24:58.068Z,1007.79
2017-05-20T03:25:38.545Z,1007.81
2017-05-20T03:26:19.035Z,1007.81
2017-05-20T03:26:59.518Z,1007.78
2017-05-20T03:27:39.994Z,1007.8
2017-05-20T03:28:20.484Z,1007.81
2017-05-20T03:29:00.970Z,1007.81
2017-05-20T03:29:41.461Z,1007.8
2017-05-20T03:30:21.962Z,1007.81
2017-05-20T03:31:02.453Z,1007.8
2017-05-20T03:31:43.084Z,1007.8
2017-05-20T03:32:23.572Z,1007.8
2017-05-20T03:33:04.057Z,1007.74
2017-05-20T03:33:44.551Z,1007.79
2017-05-20T03:34:25.046Z,1007.83
2017-05-20T03:35:05.529Z,1007.82
2017-05-20T03:35:46.002Z,1007.79
2017-05-20T03:36:26.482Z,1007.79
2017-05-20T03:37:06.959Z,1007.8
2017-05-20T03:37:47.446Z,1007.81
2017-05-20T03:38:27.906Z,1007.79
2017-05-20T03:39:08.385Z,1007.79
2017-05-20T03:41:26.172Z,1007.79
2017-05-20T03:42:06.640Z,1007.81
2017-05-20T03:42:47.076Z,1007.79
2017-05-20T03:43:27.520Z,1007.79
2017-05-20T03:44:07.978Z,1007.8
2017-05-20T03:44:48.413Z,1007.79
2017-05-20T03:46:40.987Z,1007.83
2017-05-20T03:47:21.436Z,1007.89
2017-05-20T03:48:01.905Z,1007.85
2017-05-20T03:48:42.394Z,1007.86
2017-05-20T03:49:22.861Z,1007.88
2017-05-20T03:50:03.309Z,1007.88
2017-05-20T03:52:21.098Z,1007.91
2017-05-20T03:53:01.536Z,1007.93
2017-05-20T03:53:42.060Z,1007.89
2017-05-20T03:54:22.516Z,1007.93
2017-05-20T03:55:02.977Z,1007.87
2017-05-20T03:55:43.457Z,1007.91
2017-05-20T03:56:23.937Z,1007.91
2017-05-20T03:57:04.427Z,1007.91
2017-05-20T03:57:44.909Z,1007.91
2017-05-20T03:58:25.381Z,1007.93
2017-05-20T03:59:05.856Z,1007.88
2017-05-20T03:59:46.303Z,1007.9
2017-05-20T04:00:26.723Z,1007.92
2017-05-20T04:01:07.147Z,1007.92
2017-05-20T04:03:19.839Z,1007.91
2017-05-20T04:04:00.302Z,1007.87
2017-05-20T04:04:40.767Z,1007.89
2017-05-20T04:05:21.236Z,1007.89
2017-05-20T04:06:01.711Z,1007.88
2017-05-20T04:06:42.213Z,1007.92
2017-05-20T04:07:22.685Z,1007.91
2017-05-20T04:08:03.160Z,1007.9
2017-05-20T04:08:43.648Z,1007.9
2017-05-20T04:09:24.149Z,1007.91
2017-05-20T04:10:04.628Z,1007.88
2017-05-20T04:10:45.098Z,1007.9
2017-05-20T04:11:25.584Z,1007.89
2017-05-20T04:12:06.080Z,1007.92
2017-05-20T04:12:46.547Z,1007.92
2017-05-20T04:13:27.025Z,1007.97
2017-05-20T04:14:07.508Z,1007.96
2017-05-20T04:16:00.043Z,1008
2017-05-20T04:16:40.498Z,1008
2017-05-20T04:17:20.967Z,1008.03
2017-05-20T04:18:01.495Z,1008.04
2017-05-20T04:18:41.961Z,1008.06
2017-05-20T04:19:22.431Z,1008.09
2017-05-20T04:20:02.900Z,1008.1
2017-05-20T04:20:43.398Z,1008.14
2017-05-20T04:21:23.844Z,1008.13
2017-05-20T04:23:41.646Z,1008.21
2017-05-20T04:24:22.708Z,1008.25
2017-05-20T04:25:03.182Z,1008.28
2017-05-20T04:25:43.642Z,1008.27
2017-05-20T04:26:24.118Z,1008.34
2017-05-20T04:27:04.604Z,1008.35
2017-05-20T04:27:45.076Z,1008.36
2017-05-20T04:28:25.558Z,1008.39
2017-05-20T04:29:06.036Z,1008.4
2017-05-20T04:29:46.505Z,1008.47
2017-05-20T04:30:27.012Z,1008.54
2017-05-20T04:31:07.461Z,1008.53
2017-05-20T04:33:35.403Z,1008.6
2017-05-20T04:34:15.853Z,1008.63
2017-05-20T04:34:56.346Z,1008.64
2017-05-20T04:35:36.825Z,1008.58
2017-05-20T04:36:17.298Z,1008.62
2017-05-20T04:36:57.796Z,1008.65
2017-05-20T04:37:38.274Z,1008.61
2017-05-20T04:39:56.065Z,1008.67
2017-05-20T04:40:36.577Z,1008.65
2017-05-20T04:41:17.009Z,1008.72
2017-05-20T04:41:57.507Z,1008.74
2017-05-20T04:42:37.993Z,1008.77
2017-05-20T04:43:18.461Z,1008.7
2017-05-20T04:43:58.945Z,1008.69
2017-05-20T04:44:39.433Z,1008.66
2017-05-20T04:45:19.912Z,1008.67
2017-05-20T04:46:00.392Z,1008.64
2017-05-20T04:46:40.879Z,1008.64
2017-05-20T04:47:21.378Z,1008.66
2017-05-20T04:48:01.823Z,1008.68
2017-05-20T04:48:42.301Z,1008.74
2017-05-20T04:49:22.776Z,1008.71
2017-05-20T04:50:03.266Z,1008.7
2017-05-20T04:50:43.758Z,1008.69
2017-05-20T04:51:24.230Z,1008.75
2017-05-20T04:52:04.691Z,1008.73
2017-05-20T04:54:22.506Z,1008.76
2017-05-20T04:55:02.962Z,1008.77
2017-05-20T04:55:43.451Z,1008.74
2017-05-20T04:56:23.957Z,1008.78
2017-05-20T04:57:04.382Z,1008.82
2017-05-20T04:58:56.931Z,1008.8
2017-05-20T04:59:37.403Z,1008.82
2017-05-20T05:00:17.877Z,1008.85
2017-05-20T05:00:58.374Z,1008.86
2017-05-20T05:01:38.872Z,1008.85
2017-05-20T05:02:19.345Z,1008.9
2017-05-20T05:02:59.843Z,1008.88
2017-05-20T05:03:40.342Z,1008.87
2017-05-20T05:04:20.830Z,1008.91
2017-05-20T05:05:01.330Z,1008.92
2017-05-20T05:05:41.805Z,1008.93
2017-05-20T05:06:22.271Z,1008.96
2017-05-20T05:07:02.752Z,1009.02
2017-05-20T05:07:43.227Z,1009.07
2017-05-20T05:08:23.715Z,1009.04
2017-05-20T05:09:04.207Z,1009.02
2017-05-20T05:09:44.699Z,1009.06
2017-05-20T05:10:25.156Z,1009.08
2017-05-20T05:11:05.624Z,1009.08
2017-05-20T05:11:46.098Z,1009.11
2017-05-20T05:12:26.602Z,1009.12
2017-05-20T05:13:07.079Z,1009.11
2017-05-20T05:13:47.546Z,1009.15
2017-05-20T05:14:27.999Z,1009.18
2017-05-20T05:15:08.447Z,1009.15
2017-05-20T05:15:48.890Z,1009.16
2017-05-20T05:16:29.356Z,1009.2
2017-05-20T05:17:09.799Z,1009.24
2017-05-20T05:17:50.255Z,1009.23
2017-05-20T05:18:30.723Z,1009.19
2017-05-20T05:19:11.202Z,1009.21
2017-05-20T05:19:51.694Z,1009.24
2017-05-20T05:20:32.165Z,1009.21
2017-05-20T05:21:12.657Z,1009.23
2017-05-20T05:21:53.908Z,1009.25
2017-05-20T05:22:34.336Z,1009.22
2017-05-20T05:23:14.776Z,1009.23
2017-05-20T05:23:55.272Z,1009.28
2017-05-20T05:24:35.771Z,1009.27
2017-05-20T05:25:16.265Z,1009.33
2017-05-20T05:25:56.741Z,1009.3
2017-05-20T05:26:37.207Z,1009.27
2017-05-20T05:27:17.706Z,1009.3
2017-05-20T05:27:58.203Z,1009.28
2017-05-20T05:28:38.678Z,1009.28
2017-05-20T05:29:19.178Z,1009.3
2017-05-20T05:29:59.683Z,1009.29
2017-05-20T05:30:40.135Z,1009.33
2017-05-20T05:31:20.652Z,1009.3
2017-05-20T05:32:01.123Z,1009.29
2017-05-20T05:32:41.570Z,1009.32
2017-05-20T05:33:22.093Z,1009.32
2017-05-20T05:34:02.518Z,1009.35
2017-05-20T05:34:43.025Z,1009.33
2017-05-20T05:35:23.502Z,1009.36
2017-05-20T05:36:03.985Z,1009.42
2017-05-20T05:36:44.462Z,1009.41
2017-05-20T05:37:24.951Z,1009.44
2017-05-20T05:38:05.370Z,1009.45
2017-05-20T05:38:45.834Z,1009.44
2017-05-20T05:39:26.302Z,1009.48
2017-05-20T05:40:06.777Z,1009.47
2017-05-20T05:40:47.279Z,1009.51
2017-05-20T05:41:27.740Z,1009.54
2017-05-20T05:42:08.234Z,1009.52
2017-05-20T05:42:48.718Z,1009.55
2017-05-20T05:43:29.198Z,1009.56
2017-05-20T05:44:09.672Z,1009.59
2017-05-20T05:44:50.145Z,1009.59
2017-05-20T05:47:07.958Z,1009.62
2017-05-20T05:47:48.440Z,1009.64
2017-05-20T05:48:28.915Z,1009.69
2017-05-20T05:49:09.399Z,1009.66
2017-05-20T05:49:49.884Z,1009.68
2017-05-20T05:50:30.375Z,1009.67
2017-05-20T05:51:10.860Z,1009.74
2017-05-20T05:51:51.366Z,1009.68
2017-05-20T05:52:31.855Z,1009.69
2017-05-20T05:53:12.344Z,1009.71
2017-05-20T05:53:52.817Z,1009.65
2017-05-20T05:55:50.415Z,1009.74
2017-05-20T05:56:30.930Z,1009.74
2017-05-20T05:57:11.391Z,1009.73
2017-05-20T05:57:51.876Z,1009.76
2017-05-20T05:58:32.358Z,1009.71
2017-05-20T05:59:12.849Z,1009.74
2017-05-20T05:59:53.331Z,1009.73
2017-05-20T06:00:33.802Z,1009.74
2017-05-20T06:01:14.319Z,1009.71
2017-05-20T06:01:54.725Z,1009.7
2017-05-20T06:02:35.193Z,1009.69
2017-05-20T06:03:15.695Z,1009.73
2017-05-20T06:03:56.171Z,1009.72
2017-05-20T06:04:36.655Z,1009.72
2017-05-20T06:05:17.137Z,1009.76
2017-05-20T06:05:57.624Z,1009.73
2017-05-20T06:06:38.093Z,1009.75
2017-05-20T06:07:18.569Z,1009.74
2017-05-20T06:07:59.079Z,1009.71
2017-05-20T06:08:39.569Z,1009.76
2017-05-20T06:09:20.047Z,1009.74
2017-05-20T06:10:00.519Z,1009.69
2017-05-20T06:10:40.995Z,1009.72
2017-05-20T06:11:21.463Z,1009.69
2017-05-20T06:12:01.918Z,1009.7
2017-05-20T06:14:14.662Z,1009.78
2017-05-20T06:14:55.105Z,1009.78
2017-05-20T06:15:35.624Z,1009.81
2017-05-20T06:16:16.103Z,1009.8
2017-05-20T06:16:56.594Z,1009.83
2017-05-20T06:17:37.097Z,1009.85
2017-05-20T06:18:17.552Z,1009.84
2017-05-20T06:18:58.012Z,1009.85
2017-05-20T06:21:15.835Z,1009.85
2017-05-20T06:21:56.307Z,1009.77
2017-05-20T06:22:36.786Z,1009.83
2017-05-20T06:23:17.271Z,1009.85
2017-05-20T06:23:57.768Z,1009.89
2017-05-20T06:24:38.265Z,1009.84
2017-05-20T06:25:18.750Z,1009.85
2017-05-20T06:27:46.672Z,1009.85
2017-05-20T06:28:27.176Z,1009.9
2017-05-20T06:29:07.659Z,1009.93
2017-05-20T06:29:48.121Z,1009.92
2017-05-20T06:30:28.605Z,1009.96
2017-05-20T06:32:46.393Z,1009.97
2017-05-20T06:33:26.854Z,1009.99
2017-05-20T06:34:07.340Z,1010.04
2017-05-20T06:34:47.819Z,1010.05
2017-05-20T06:35:28.276Z,1010.06
2017-05-20T06:36:08.706Z,1010.06
2017-05-20T06:36:49.160Z,1010.08
2017-05-20T06:37:29.644Z,1010.09
2017-05-20T06:38:10.121Z,1010.09
2017-05-20T06:38:50.567Z,1010.09
2017-05-20T06:40:48.193Z,1010.1
2017-05-20T06:41:28.690Z,1010.11
2017-05-20T06:42:09.156Z,1010.13
2017-05-20T06:42:49.610Z,1010.18
2017-05-20T06:43:30.065Z,1010.19
2017-05-20T06:44:10.520Z,1010.24
2017-05-20T06:44:50.990Z,1010.17
2017-05-20T06:45:31.492Z,1010.22
2017-05-20T06:46:11.996Z,1010.29
2017-05-20T06:46:52.463Z,1010.26
2017-05-20T06:47:32.935Z,1010.26
2017-05-20T06:48:13.386Z,1010.27
2017-05-20T06:48:53.836Z,1010.29
2017-05-20T06:49:34.288Z,1010.26
2017-05-20T06:50:14.762Z,1010.3
2017-05-20T06:50:55.260Z,1010.32
2017-05-20T06:51:35.758Z,1010.3
2017-05-20T06:52:16.246Z,1010.35
2017-05-20T06:52:56.727Z,1010.35
2017-05-20T06:53:37.199Z,1010.35
2017-05-20T06:54:17.696Z,1010.37
2017-05-20T06:54:58.181Z,1010.37
2017-05-20T06:55:38.675Z,1010.35
2017-05-20T06:56:19.134Z,1010.35
2017-05-20T06:56:59.621Z,1010.37
2017-05-20T06:57:40.065Z,1010.41
2017-05-20T06:58:20.506Z,1010.37
2017-05-20T06:59:00.953Z,1010.35
2017-05-20T06:59:41.383Z,1010.38
2017-05-20T07:01:54.127Z,1010.39
2017-05-20T07:02:34.609Z,1010.33
2017-05-20T07:03:15.105Z,1010.38
2017-05-20T07:03:55.579Z,1010.35
2017-05-20T07:04:36.046Z,1010.35
2017-05-20T07:05:16.495Z,1010.39
2017-05-20T07:05:56.954Z,1010.37
2017-05-20T07:06:37.418Z,1010.35
2017-05-20T07:07:17.866Z,1010.35
2017-05-20T07:09:45.786Z,1010.34
2017-05-20T07:10:26.270Z,1010.34
2017-05-20T07:11:06.724Z,1010.32
2017-05-20T07:11:47.220Z,1010.33
2017-05-20T07:12:27.705Z,1010.36
2017-05-20T07:13:08.204Z,1010.29
2017-05-20T07:13:48.668Z,1010.35
2017-05-20T07:14:29.156Z,1010.31
2017-05-20T07:15:09.675Z,1010.32
2017-05-20T07:17:27.495Z,1010.32
2017-05-20T07:18:07.980Z,1010.35
2017-05-20T07:18:48.476Z,1010.31
2017-05-20T07:19:28.905Z,1010.33
2017-05-20T07:20:09.342Z,1010.39
2017-05-20T07:20:49.835Z,1010.38
2017-05-20T07:21:30.302Z,1010.36
2017-05-20T07:22:10.756Z,1010.34
2017-05-20T07:22:51.185Z,1010.37
2017-05-20T07:23:31.688Z,1010.38
2017-05-20T07:24:12.184Z,1010.39
2017-05-20T07:24:52.686Z,1010.41
2017-05-20T07:25:33.160Z,1010.38
2017-05-20T07:26:13.655Z,1010.4
2017-05-20T07:26:54.140Z,1010.43
2017-05-20T07:27:34.622Z,1010.4
2017-05-20T07:28:15.082Z,1010.42
2017-05-20T07:28:55.541Z,1010.42
2017-05-20T07:29:36.011Z,1010.43
2017-05-20T07:30:16.470Z,1010.4
2017-05-20T07:32:29.210Z,1010.42
2017-05-20T07:33:09.700Z,1010.46
2017-05-20T07:33:50.207Z,1010.5
2017-05-20T07:34:30.660Z,1010.46
2017-05-20T07:35:11.157Z,1010.49
2017-05-20T07:35:51.735Z,1010.52
2017-05-20T07:36:32.159Z,1010.55
2017-05-20T07:37:12.659Z,1010.57
2017-05-20T07:37:53.158Z,1010.54
2017-05-20T07:38:33.665Z,1010.58
2017-05-20T07:39:14.163Z,1010.57
2017-05-20T07:39:54.655Z,1010.57
2017-05-20T07:40:35.159Z,1010.61
2017-05-20T07:41:15.632Z,1010.62
2017-05-20T07:41:56.128Z,1010.58
2017-05-20T07:42:36.620Z,1010.6
2017-05-20T07:43:17.124Z,1010.65
2017-05-20T07:43:57.650Z,1010.64
2017-05-20T07:44:38.142Z,1010.69
2017-05-20T07:45:18.665Z,1010.75
2017-05-20T07:45:59.162Z,1010.69
2017-05-20T07:46:39.632Z,1010.73
2017-05-20T07:47:20.135Z,1010.7
2017-05-20T07:48:00.608Z,1010.7
2017-05-20T07:48:41.095Z,1010.73
2017-05-20T07:49:21.567Z,1010.77
2017-05-20T07:50:02.035Z,1010.78
2017-05-20T07:50:42.509Z,1010.73
2017-05-20T07:51:23.046Z,1010.82
2017-05-20T07:52:03.535Z,1010.82
2017-05-20T07:54:01.221Z,1010.88
2017-05-20T07:54:41.715Z,1010.93
2017-05-20T07:55:22.198Z,1010.93
2017-05-20T07:56:02.662Z,1010.91
2017-05-20T07:56:43.161Z,1010.94
2017-05-20T07:57:23.652Z,1010.89
2017-05-20T07:58:04.134Z,1010.94
2017-05-20T07:58:44.572Z,1010.98
2017-05-20T07:59:25.052Z,1010.99
2017-05-20T08:00:05.515Z,1010.82
2017-05-20T08:00:45.955Z,1010.76
2017-05-20T08:01:26.399Z,1010.94
2017-05-20T08:02:06.864Z,1010.86
2017-05-20T08:04:24.714Z,1010.86
2017-05-20T08:05:05.163Z,1010.85
2017-05-20T08:06:57.717Z,1010.87
2017-05-20T08:07:38.186Z,1010.84
2017-05-20T08:08:18.673Z,1010.85
2017-05-20T08:08:59.167Z,1010.87
2017-05-20T08:09:39.662Z,1011.04
2017-05-20T08:10:20.127Z,1010.97
2017-05-20T08:11:00.604Z,1010.85
2017-05-20T08:11:41.079Z,1010.95
2017-05-20T08:13:58.899Z,1011.09
2017-05-20T08:14:39.372Z,1011
2017-05-20T08:15:19.872Z,1011.02
2017-05-20T08:16:00.383Z,1010.9
2017-05-20T08:16:40.856Z,1010.91
2017-05-20T08:17:21.316Z,1010.91
2017-05-20T08:18:01.802Z,1010.93
2017-05-20T08:18:42.295Z,1010.86
2017-05-20T08:19:22.780Z,1010.89
2017-05-20T08:20:03.284Z,1010.77
2017-05-20T08:20:43.783Z,1010.76
2017-05-20T08:21:24.271Z,1010.78
2017-05-20T08:22:04.719Z,1010.77
2017-05-20T08:22:45.184Z,1010.98
2017-05-20T08:23:25.632Z,1011.29
2017-05-20T08:24:06.064Z,1011.43
2017-05-20T08:25:58.683Z,1011.22
2017-05-20T08:26:39.104Z,1011.06
2017-05-20T08:28:56.972Z,1010.93
2017-05-20T08:29:37.446Z,1010.94
2017-05-20T08:30:17.958Z,1010.95
2017-05-20T08:30:58.438Z,1010.81
2017-05-20T08:31:38.924Z,1011.01
2017-05-20T08:32:19.418Z,1010.91
2017-05-20T08:32:59.916Z,1010.9
2017-05-20T08:33:40.400Z,1010.93
2017-05-20T08:34:20.907Z,1010.92
2017-05-20T08:35:01.386Z,1010.97
2017-05-20T08:35:41.861Z,1011.2
2017-05-20T08:36:22.338Z,1011.24
2017-05-20T08:37:02.820Z,1011.13
2017-05-20T08:37:43.325Z,1010.96
2017-05-20T08:38:23.802Z,1010.85
2017-05-20T08:39:04.258Z,1010.83
2017-05-20T08:39:44.752Z,1011.06
2017-05-20T08:40:25.241Z,1011.21
2017-05-20T08:41:05.691Z,1011.32
2017-05-20T08:41:46.216Z,1011.22
2017-05-20T08:42:26.699Z,1011.02
2017-05-20T08:44:54.619Z,1010.88
2017-05-20T08:45:35.095Z,1011.02
2017-05-20T08:46:15.595Z,1010.89
2017-05-20T08:46:56.082Z,1010.98
2017-05-20T08:47:36.540Z,1010.91
2017-05-20T08:49:49.236Z,1011.1
2017-05-20T08:50:29.739Z,1011.1
2017-05-20T08:51:10.179Z,1011.15
2017-05-20T08:51:50.671Z,1011.14
2017-05-20T08:52:31.147Z,1011.08
2017-05-20T08:53:11.628Z,1011.07
2017-05-20T08:53:52.125Z,1011.1
2017-05-20T08:54:32.588Z,1011.14
2017-05-20T08:55:13.091Z,1011.26
2017-05-20T08:55:53.842Z,1011.24
2017-05-20T08:56:34.314Z,1011.36
2017-05-20T08:57:14.795Z,1011.55
2017-05-20T08:59:27.521Z,1011.16
2017-05-20T09:00:08.061Z,1011.13
2017-05-20T09:00:48.514Z,1011.14
2017-05-20T09:01:28.992Z,1011.18
2017-05-20T09:02:09.429Z,1011.2
2017-05-20T09:02:49.898Z,1011.19
2017-05-20T09:03:30.367Z,1011.25
2017-05-20T09:04:10.860Z,1011.29
2017-05-20T09:04:51.325Z,1011.35
2017-05-20T09:05:31.767Z,1011.32
2017-05-20T09:06:12.257Z,1011.36
2017-05-20T09:08:04.848Z,1011.4
2017-05-20T09:08:45.306Z,1011.48
2017-05-20T09:09:25.804Z,1011.49
2017-05-20T09:10:06.284Z,1011.47
2017-05-20T09:10:46.718Z,1011.46
2017-05-20T09:13:04.508Z,1011.41
2017-05-20T09:13:45.006Z,1011.36
2017-05-20T09:14:25.488Z,1011.33
2017-05-20T09:15:05.992Z,1011.31
2017-05-20T09:15:46.452Z,1011.34
2017-05-20T09:16:26.942Z,1011.41
2017-05-20T09:17:07.416Z,1011.55
2017-05-20T09:17:47.880Z,1011.56
2017-05-20T09:18:28.335Z,1011.48
2017-05-20T09:20:26.278Z,1011.6
2017-05-20T09:21:06.769Z,1011.65
2017-05-20T09:21:47.302Z,1011.68
2017-05-20T09:22:27.715Z,1011.74
2017-05-20T09:23:08.213Z,1011.81
2017-05-20T09:23:48.699Z,1011.88
2017-05-20T09:24:29.187Z,1011.89
2017-05-20T09:25:09.663Z,1011.91
2017-05-20T09:25:50.142Z,1011.99
2017-05-20T09:26:30.650Z,1011.94
2017-05-20T09:27:11.141Z,1011.96
2017-05-20T09:27:51.612Z,1011.97